createdAt,value
2019-03-26T00:02:14.951Z,6.20
2019-03-26T00:04:43.346Z,6.30
2019-03-26T00:07:11.729Z,6.20
2019-03-26T00:09:40.119Z,6.30
2019-03-26T00:12:08.479Z,6.20
2019-03-26T00:14:36.896Z,6.20
2019-03-26T00:17:05.269Z,6.20
2019-03-26T00:19:33.659Z,6.30
2019-03-26T00:22:02.035Z,6.40
2019-03-26T00:24:30.430Z,6.30
2019-03-26T00:26:58.804Z,6.30
2019-03-26T00:29:27.212Z,6.30
2019-03-26T00:31:55.585Z,6.20
2019-03-26T00:34:23.880Z,6.20
2019-03-26T00:36:52.271Z,6.20
2019-03-26T00:39:20.644Z,6.10
2019-03-26T00:41:49.039Z,6.20
2019-03-26T00:44:17.406Z,6.10
2019-03-26T00:46:45.807Z,6.10
2019-03-26T00:49:14.175Z,6.10
2019-03-26T00:51:42.568Z,6.10
2019-03-26T00:54:10.931Z,6.10
2019-03-26T00:56:39.344Z,6.10
2019-03-26T00:59:07.702Z,6.10
2019-03-26T01:01:36.096Z,6.10
2019-03-26T01:04:04.466Z,6.00
2019-03-26T01:06:32.865Z,6.00
2019-03-26T01:09:01.222Z,6.00
2019-03-26T01:11:29.612Z,6.10
2019-03-26T01:13:57.985Z,5.90
2019-03-26T01:16:26.376Z,5.90
2019-03-26T01:18:54.752Z,5.90
2019-03-26T01:21:23.129Z,5.90
2019-03-26T01:23:51.508Z,5.90
2019-03-26T01:26:19.912Z,5.90
2019-03-26T01:28:48.289Z,5.90
2019-03-26T01:31:16.684Z,5.90
2019-03-26T01:33:45.056Z,5.90
2019-03-26T01:36:13.456Z,6.00
2019-03-26T01:38:41.854Z,6.00
2019-03-26T01:41:10.253Z,5.90
2019-03-26T01:43:38.621Z,5.70
2019-03-26T01:46:07.015Z,5.80
2019-03-26T01:48:35.386Z,5.80
2019-03-26T01:51:03.788Z,5.80
2019-03-26T01:53:32.172Z,5.50
2019-03-26T01:56:00.570Z,5.40
2019-03-26T01:58:28.872Z,5.30
2019-03-26T02:00:57.256Z,5.30
2019-03-26T02:03:25.651Z,5.30
2019-03-26T02:05:54.019Z,5.10
2019-03-26T02:08:22.420Z,5.00
2019-03-26T02:10:50.785Z,4.90
2019-03-26T02:13:19.202Z,4.90
2019-03-26T02:15:47.571Z,4.90
2019-03-26T02:18:15.962Z,4.80
2019-03-26T02:20:44.349Z,4.80
2019-03-26T02:23:12.748Z,4.80
2019-03-26T02:25:41.118Z,4.80
2019-03-26T02:28:09.521Z,4.90
2019-03-26T02:30:37.887Z,4.90
2019-03-26T02:33:06.286Z,4.90
2019-03-26T02:35:34.667Z,4.80
2019-03-26T02:38:03.055Z,4.80
2019-03-26T02:40:31.436Z,4.70
2019-03-26T02:42:59.835Z,4.80
2019-03-26T02:45:28.199Z,4.70
2019-03-26T02:47:56.604Z,4.80
2019-03-26T02:50:24.966Z,4.80
2019-03-26T02:52:53.362Z,4.70
2019-03-26T02:55:21.748Z,4.60
2019-03-26T02:57:50.157Z,4.60
2019-03-26T03:00:18.560Z,4.70
2019-03-26T03:02:46.957Z,4.60
2019-03-26T03:05:15.336Z,4.60
2019-03-26T03:07:43.737Z,4.60
2019-03-26T03:10:12.100Z,4.60
2019-03-26T03:12:40.502Z,4.60
2019-03-26T03:15:08.894Z,4.60
2019-03-26T03:17:37.268Z,4.60
2019-03-26T03:20:06.226Z,4.60
2019-03-26T03:22:34.713Z,4.70
2019-03-26T03:25:03.101Z,4.70
2019-03-26T03:27:31.497Z,4.70
2019-03-26T03:29:59.890Z,4.70
2019-03-26T03:32:28.321Z,4.70
2019-03-26T03:34:56.702Z,4.70
2019-03-26T03:37:25.096Z,4.70
2019-03-26T03:39:53.470Z,4.70
2019-03-26T03:42:21.888Z,4.60
2019-03-26T03:44:50.280Z,4.60
2019-03-26T03:47:52.093Z,4.70
2019-03-26T03:50:20.577Z,4.70
2019-03-26T03:52:49.024Z,4.70
2019-03-26T03:55:17.416Z,4.70
2019-03-26T03:57:45.899Z,4.80
2019-03-26T04:00:23.520Z,4.80
2019-03-26T04:02:52.014Z,4.80
2019-03-26T04:05:20.387Z,5.00
2019-03-26T04:07:48.790Z,5.00
2019-03-26T04:10:17.196Z,4.80
2019-03-26T04:12:45.680Z,4.80
2019-03-26T04:15:14.066Z,4.70
2019-03-26T04:17:42.464Z,4.80
2019-03-26T04:20:10.889Z,4.80
2019-03-26T04:22:39.291Z,4.90
2019-03-26T04:25:07.733Z,4.80
2019-03-26T04:27:37.812Z,4.80
2019-03-26T04:30:07.940Z,4.70
2019-03-26T04:32:36.345Z,4.70
2019-03-26T04:35:06.476Z,4.70
2019-03-26T04:37:34.885Z,4.60
2019-03-26T04:40:03.310Z,4.50
2019-03-26T04:42:31.722Z,4.50
2019-03-26T04:45:00.463Z,4.50
2019-03-26T04:47:28.856Z,4.60
2019-03-26T04:49:57.286Z,4.60
2019-03-26T04:52:25.689Z,4.60
2019-03-26T04:54:54.132Z,4.60
2019-03-26T04:57:22.543Z,4.70
2019-03-26T04:59:51.029Z,4.70
2019-03-26T05:02:19.404Z,4.70
2019-03-26T05:04:47.822Z,4.70
2019-03-26T05:07:16.239Z,4.70
2019-03-26T05:09:44.650Z,4.80
2019-03-26T05:12:13.035Z,4.70
2019-03-26T05:14:41.483Z,4.70
2019-03-26T05:17:09.879Z,4.50
2019-03-26T05:19:38.297Z,4.50
2019-03-26T05:22:06.677Z,4.50
2019-03-26T05:24:35.090Z,4.50
2019-03-26T05:27:03.499Z,4.50
2019-03-26T05:29:31.928Z,4.40
2019-03-26T05:32:00.327Z,4.40
2019-03-26T05:34:28.742Z,4.50
2019-03-26T05:36:57.214Z,4.50
2019-03-26T05:39:25.652Z,4.60
2019-03-26T05:41:54.133Z,4.60
2019-03-26T05:44:22.579Z,4.80
2019-03-26T05:46:50.991Z,4.90
2019-03-26T05:49:19.416Z,5.00
2019-03-26T05:51:47.814Z,5.10
2019-03-26T05:54:17.215Z,5.00
2019-03-26T05:56:45.674Z,5.10
2019-03-26T05:59:14.209Z,4.90
2019-03-26T06:01:42.637Z,4.90
2019-03-26T06:04:11.067Z,4.80
2019-03-26T06:06:39.499Z,4.90
2019-03-26T06:09:07.896Z,5.00
2019-03-26T06:11:36.311Z,5.10
2019-03-26T06:14:04.721Z,5.20
2019-03-26T06:16:38.230Z,5.10
2019-03-26T06:19:03.168Z,5.10
2019-03-26T06:21:31.677Z,4.90
2019-03-26T06:24:00.077Z,5.00
2019-03-26T06:26:30.336Z,5.00
2019-03-26T06:29:01.174Z,4.90
2019-03-26T06:31:29.322Z,5.00
2019-03-26T06:33:57.713Z,5.00
2019-03-26T06:36:26.125Z,5.00
2019-03-26T06:38:54.521Z,5.00
2019-03-26T06:41:22.942Z,5.20
2019-03-26T06:43:51.351Z,5.30
2019-03-26T06:46:19.778Z,5.40
2019-03-26T06:48:48.655Z,5.50
2019-03-26T06:51:17.094Z,5.50
2019-03-26T06:53:45.500Z,5.60
2019-03-26T06:56:13.915Z,5.60
2019-03-26T06:58:42.385Z,5.70
2019-03-26T07:01:10.809Z,5.70
2019-03-26T07:03:39.202Z,5.70
2019-03-26T07:06:07.639Z,5.80
2019-03-26T07:08:36.042Z,5.80
2019-03-26T07:11:04.455Z,5.90
2019-03-26T07:13:32.850Z,6.00
2019-03-26T07:16:01.262Z,6.00
2019-03-26T07:18:29.646Z,6.10
2019-03-26T07:20:58.069Z,6.20
2019-03-26T07:23:26.456Z,6.30
2019-03-26T07:25:54.875Z,6.50
2019-03-26T07:28:23.266Z,6.50
2019-03-26T07:30:51.690Z,6.60
2019-03-26T07:33:20.086Z,6.60
2019-03-26T07:35:48.504Z,6.70
2019-03-26T07:38:16.901Z,6.70
2019-03-26T07:40:45.341Z,6.80
2019-03-26T07:43:13.738Z,6.90
2019-03-26T07:45:42.171Z,7.00
2019-03-26T07:48:10.574Z,7.10
2019-03-26T07:50:39.002Z,7.20
2019-03-26T07:53:07.400Z,7.40
2019-03-26T07:55:35.821Z,7.50
2019-03-26T07:58:04.465Z,7.60
2019-03-26T08:00:34.226Z,7.60
2019-03-26T08:03:02.599Z,7.70
2019-03-26T08:05:31.016Z,7.70
2019-03-26T08:07:59.595Z,7.70
2019-03-26T08:10:28.123Z,7.70
2019-03-26T08:12:56.706Z,7.70
2019-03-26T08:15:25.119Z,7.50
2019-03-26T08:17:53.546Z,7.70
2019-03-26T08:20:21.962Z,7.90
2019-03-26T08:22:50.417Z,8.30
2019-03-26T08:25:18.799Z,9.10
2019-03-26T08:27:47.216Z,9.90
2019-03-26T08:30:15.606Z,10.40
2019-03-26T08:32:44.027Z,10.40
2019-03-26T08:35:12.421Z,9.70
2019-03-26T08:37:40.840Z,9.80
2019-03-26T08:40:09.407Z,10.30
2019-03-26T08:42:37.802Z,10.80
2019-03-26T08:45:07.741Z,10.90
2019-03-26T08:47:36.185Z,10.40
2019-03-26T08:50:07.578Z,9.80
2019-03-26T08:52:35.998Z,9.80
2019-03-26T08:55:07.404Z,9.80
2019-03-26T08:57:35.828Z,9.80
2019-03-26T09:00:09.455Z,9.80
2019-03-26T09:02:37.878Z,9.60
2019-03-26T09:05:07.420Z,9.50
2019-03-26T09:07:35.842Z,9.40
2019-03-26T09:10:05.960Z,9.10
2019-03-26T09:12:34.385Z,9.00
2019-03-26T09:15:02.798Z,8.90
2019-03-26T09:17:31.242Z,9.00
2019-03-26T09:19:59.644Z,9.10
2019-03-26T09:22:28.083Z,9.10
2019-03-26T09:24:56.498Z,9.40
2019-03-26T09:27:24.919Z,9.60
2019-03-26T09:29:53.327Z,10.00
2019-03-26T09:32:22.277Z,10.60
2019-03-26T09:34:50.647Z,11.10
2019-03-26T09:37:19.090Z,11.60
2019-03-26T09:39:47.639Z,12.20
2019-03-26T09:42:16.087Z,12.40
2019-03-26T09:44:44.470Z,12.40
2019-03-26T09:47:16.509Z,12.20
2019-03-26T09:49:42.900Z,12.10
2019-03-26T09:52:11.297Z,11.90
2019-03-26T09:54:39.676Z,11.80
2019-03-26T09:57:08.074Z,11.60
2019-03-26T09:59:36.453Z,11.30
2019-03-26T10:02:04.828Z,11.10
2019-03-26T10:04:33.227Z,10.90
2019-03-26T10:07:01.607Z,10.80
2019-03-26T10:09:30.007Z,10.40
2019-03-26T10:11:58.366Z,10.30
2019-03-26T10:14:26.815Z,9.90
2019-03-26T10:16:55.149Z,9.80
2019-03-26T10:19:23.531Z,9.70
2019-03-26T10:21:51.959Z,9.60
2019-03-26T10:24:20.357Z,9.70
2019-03-26T10:26:48.735Z,10.00
2019-03-26T10:29:29.504Z,9.80
2019-03-26T10:31:47.157Z,10.30
2019-03-26T10:34:15.548Z,10.80
2019-03-26T10:36:44.797Z,11.50
2019-03-26T10:39:13.190Z,11.40
2019-03-26T10:41:41.585Z,11.10
2019-03-26T10:44:09.977Z,11.00
2019-03-26T10:46:38.404Z,11.30
2019-03-26T10:49:06.764Z,11.50
2019-03-26T10:51:35.132Z,11.70
2019-03-26T10:54:03.523Z,11.80
2019-03-26T10:56:32.745Z,12.00
2019-03-26T10:59:04.058Z,12.10
2019-03-26T11:01:31.223Z,12.30
2019-03-26T11:03:59.629Z,12.90
2019-03-26T11:06:28.001Z,13.80
2019-03-26T11:08:56.398Z,14.10
2019-03-26T11:11:24.770Z,13.90
2019-03-26T11:13:53.154Z,13.60
2019-03-26T11:16:21.537Z,13.10
2019-03-26T11:18:49.943Z,12.70
2019-03-26T11:21:18.325Z,12.30
2019-03-26T11:23:46.729Z,12.00
2019-03-26T11:26:15.111Z,11.70
2019-03-26T11:28:43.503Z,11.50
2019-03-26T11:31:11.882Z,11.40
2019-03-26T11:33:40.314Z,11.30
2019-03-26T11:36:08.662Z,11.20
2019-03-26T11:38:37.031Z,11.10
2019-03-26T11:41:05.419Z,10.90
2019-03-26T11:43:33.793Z,10.80
2019-03-26T11:46:02.213Z,10.50
2019-03-26T11:48:30.575Z,10.40
2019-03-26T11:50:58.962Z,10.30
2019-03-26T11:53:27.331Z,10.10
2019-03-26T11:55:55.736Z,10.10
2019-03-26T11:58:30.565Z,10.00
2019-03-26T12:00:54.160Z,10.00
2019-03-26T12:03:22.535Z,10.00
2019-03-26T12:05:50.927Z,9.90
2019-03-26T12:08:19.302Z,10.00
2019-03-26T12:10:47.694Z,10.10
2019-03-26T12:13:16.072Z,10.30
2019-03-26T12:15:44.481Z,10.50
2019-03-26T12:18:12.887Z,10.90
2019-03-26T12:20:41.259Z,11.20
2019-03-26T12:23:09.631Z,11.50
2019-03-26T12:25:38.033Z,11.70
2019-03-26T12:28:06.465Z,11.60
2019-03-26T12:30:36.146Z,11.80
2019-03-26T12:33:04.746Z,12.20
2019-03-26T12:35:33.139Z,12.50
2019-03-26T12:38:04.782Z,12.50
2019-03-26T12:40:33.172Z,12.50
2019-03-26T12:43:01.554Z,12.50
2019-03-26T12:45:29.946Z,12.40
2019-03-26T12:47:58.343Z,12.30
2019-03-26T12:50:26.740Z,12.10
2019-03-26T12:52:55.121Z,12.00
2019-03-26T12:55:23.507Z,11.90
2019-03-26T12:57:51.886Z,11.80
2019-03-26T13:00:23.542Z,11.60
2019-03-26T13:02:51.932Z,11.60
2019-03-26T13:05:23.116Z,11.50
2019-03-26T13:07:50.366Z,11.50
2019-03-26T13:10:18.790Z,11.60
2019-03-26T13:12:47.088Z,11.50
2019-03-26T13:15:15.481Z,11.60
2019-03-26T13:17:43.843Z,11.60
2019-03-26T13:20:12.242Z,11.70
2019-03-26T13:22:40.628Z,11.70
2019-03-26T13:25:09.007Z,11.70
2019-03-26T13:27:37.399Z,11.70
2019-03-26T13:30:06.412Z,11.70
2019-03-26T13:32:34.796Z,11.70
2019-03-26T13:35:05.172Z,11.90
2019-03-26T13:37:33.554Z,11.90
2019-03-26T13:40:01.932Z,12.10
2019-03-26T13:42:30.329Z,12.30
2019-03-26T13:44:58.705Z,12.30
2019-03-26T13:47:27.110Z,12.20
2019-03-26T13:49:55.484Z,12.10
2019-03-26T13:52:23.866Z,12.00
2019-03-26T13:54:52.249Z,12.00
2019-03-26T13:57:21.579Z,12.00
2019-03-26T13:59:49.952Z,12.00
2019-03-26T14:02:18.365Z,12.10
2019-03-26T14:04:46.752Z,12.20
2019-03-26T14:07:15.131Z,12.20
2019-03-26T14:09:43.510Z,12.00
2019-03-26T14:12:11.912Z,11.80
2019-03-26T14:14:40.295Z,11.70
2019-03-26T14:17:08.686Z,11.60
2019-03-26T14:19:37.080Z,11.50
2019-03-26T14:22:05.483Z,11.60
2019-03-26T14:24:33.877Z,11.80
2019-03-26T14:27:02.276Z,11.70
2019-03-26T14:29:30.653Z,11.60
2019-03-26T14:31:59.060Z,11.40
2019-03-26T14:34:27.444Z,11.30
2019-03-26T14:36:55.855Z,11.10
2019-03-26T14:39:24.223Z,11.00
2019-03-26T14:41:52.624Z,10.90
2019-03-26T14:44:21.000Z,10.90
2019-03-26T14:46:49.405Z,10.80
2019-03-26T14:49:17.792Z,10.80
2019-03-26T14:51:46.305Z,10.90
2019-03-26T14:54:14.647Z,10.90
2019-03-26T14:56:43.048Z,10.90
2019-03-26T14:59:11.423Z,10.90
2019-03-26T15:01:41.438Z,11.00
2019-03-26T15:04:09.734Z,11.20
2019-03-26T15:06:38.119Z,11.30
2019-03-26T15:09:07.958Z,11.40
2019-03-26T15:11:36.348Z,11.30
2019-03-26T15:14:04.734Z,11.30
2019-03-26T15:16:33.102Z,11.30
2019-03-26T15:19:01.516Z,11.30
2019-03-26T15:21:29.888Z,11.30
2019-03-26T15:23:58.296Z,11.20
2019-03-26T15:26:26.663Z,11.10
2019-03-26T15:28:55.054Z,11.00
2019-03-26T15:31:23.381Z,10.90
2019-03-26T15:33:51.857Z,10.90
2019-03-26T15:36:20.244Z,10.80
2019-03-26T15:38:48.640Z,10.70
2019-03-26T15:41:21.804Z,10.60
2019-03-26T15:43:47.064Z,10.60
2019-03-26T15:46:15.474Z,10.50
2019-03-26T15:48:43.871Z,10.40
2019-03-26T15:51:12.259Z,10.30
2019-03-26T15:53:40.660Z,10.30
2019-03-26T15:56:09.045Z,10.30
2019-03-26T15:58:37.513Z,10.20
2019-03-26T16:01:05.903Z,10.10
2019-03-26T16:03:34.341Z,10.10
2019-03-26T16:06:02.720Z,10.10
2019-03-26T16:08:31.130Z,10.10
2019-03-26T16:11:01.488Z,10.20
2019-03-26T16:13:29.930Z,10.20
2019-03-26T16:16:04.534Z,10.20
2019-03-26T16:18:32.953Z,10.10
2019-03-26T16:21:01.469Z,10.10
2019-03-26T16:23:29.988Z,10.00
2019-03-26T16:25:58.429Z,10.00
2019-03-26T16:28:26.818Z,9.90
2019-03-26T16:30:55.195Z,9.90
2019-03-26T16:33:23.614Z,9.80
2019-03-26T16:35:51.988Z,9.80
2019-03-26T16:38:20.394Z,9.70
2019-03-26T16:40:48.776Z,9.60
2019-03-26T16:43:17.224Z,9.60
2019-03-26T16:45:45.593Z,9.60
2019-03-26T16:48:14.009Z,9.60
2019-03-26T16:50:42.419Z,9.50
2019-03-26T16:53:10.819Z,9.40
2019-03-26T16:55:39.242Z,9.30
2019-03-26T16:58:07.602Z,9.30
2019-03-26T17:00:36.002Z,9.10
2019-03-26T17:03:04.392Z,9.00
2019-03-26T17:05:32.787Z,8.90
2019-03-26T17:08:01.167Z,8.90
2019-03-26T17:10:29.567Z,8.80
2019-03-26T17:12:58.686Z,8.80
2019-03-26T17:15:27.146Z,8.70
2019-03-26T17:17:55.506Z,8.70
2019-03-26T17:20:24.289Z,8.60
2019-03-26T17:22:52.718Z,8.70
2019-03-26T17:25:21.107Z,8.70
2019-03-26T17:27:49.560Z,8.70
2019-03-26T17:30:17.963Z,8.80
2019-03-26T17:32:46.350Z,8.80
2019-03-26T17:35:14.734Z,8.80
2019-03-26T17:37:43.106Z,8.80
2019-03-26T17:40:14.836Z,8.90
2019-03-26T17:42:43.184Z,8.80
2019-03-26T17:45:11.574Z,8.90
2019-03-26T17:47:39.952Z,8.80
2019-03-26T17:50:08.380Z,8.70
2019-03-26T17:52:36.736Z,8.70
2019-03-26T17:55:07.058Z,8.70
2019-03-26T17:57:35.446Z,8.60
2019-03-26T18:00:05.323Z,8.60
2019-03-26T18:02:33.685Z,8.60
2019-03-26T18:05:02.088Z,8.50
2019-03-26T18:07:30.473Z,8.50
2019-03-26T18:09:58.952Z,8.40
2019-03-26T18:12:30.986Z,8.40
2019-03-26T18:14:57.382Z,8.40
2019-03-26T18:17:25.752Z,8.40
2019-03-26T18:19:54.217Z,8.40
2019-03-26T18:22:25.388Z,8.40
2019-03-26T18:24:53.759Z,8.40
2019-03-26T18:27:22.487Z,8.40
2019-03-26T18:29:51.114Z,8.30
2019-03-26T18:32:19.544Z,8.40
2019-03-26T18:34:49.339Z,8.40
2019-03-26T18:37:17.856Z,8.30
2019-03-26T18:39:46.239Z,8.30
2019-03-26T18:42:14.672Z,8.30
2019-03-26T18:44:45.043Z,8.30
2019-03-26T18:47:13.451Z,8.40
2019-03-26T18:49:46.244Z,8.40
2019-03-26T18:52:14.635Z,8.40
2019-03-26T18:54:43.022Z,8.30
2019-03-26T18:57:11.425Z,8.30
2019-03-26T18:59:39.806Z,8.30
2019-03-26T19:02:08.188Z,8.30
2019-03-26T19:04:36.875Z,8.30
2019-03-26T19:07:05.223Z,8.30
2019-03-26T19:09:33.601Z,8.20
2019-03-26T19:12:02.041Z,8.20
2019-03-26T19:14:30.423Z,8.20
2019-03-26T19:16:58.832Z,8.20
2019-03-26T19:19:27.206Z,8.20
2019-03-26T19:21:55.630Z,8.20
2019-03-26T19:24:24.081Z,8.20
2019-03-26T19:26:52.493Z,8.30
2019-03-26T19:29:22.573Z,8.20
2019-03-26T19:31:51.041Z,8.20
2019-03-26T19:34:22.704Z,8.20
2019-03-26T19:36:53.074Z,8.20
2019-03-26T19:39:25.466Z,8.20
2019-03-26T19:41:53.834Z,8.20
2019-03-26T19:44:22.225Z,8.20
2019-03-26T19:46:51.591Z,8.20
2019-03-26T19:49:19.991Z,8.20
2019-03-26T19:51:48.397Z,8.20
2019-03-26T19:54:16.762Z,8.20
2019-03-26T19:56:45.164Z,8.20
2019-03-26T19:59:13.602Z,8.20
2019-03-26T20:01:42.034Z,8.20
2019-03-26T20:04:10.414Z,8.20
2019-03-26T20:06:38.830Z,8.20
2019-03-26T20:09:12.942Z,8.20
2019-03-26T20:11:41.323Z,8.20
2019-03-26T20:14:09.752Z,8.20
2019-03-26T20:16:41.991Z,8.30
2019-03-26T20:19:08.171Z,8.30
2019-03-26T20:21:36.559Z,8.20
2019-03-26T20:24:04.951Z,8.20
2019-03-26T20:26:33.349Z,8.30
2019-03-26T20:29:01.743Z,8.10
2019-03-26T20:31:30.119Z,8.00
2019-03-26T20:33:58.515Z,8.00
2019-03-26T20:36:26.902Z,8.00
2019-03-26T20:38:55.332Z,8.00
2019-03-26T20:41:23.700Z,8.00
2019-03-26T20:43:52.105Z,7.90
2019-03-26T20:46:20.480Z,8.00
2019-03-26T20:48:48.901Z,8.00
2019-03-26T20:51:17.272Z,7.90
2019-03-26T20:53:46.654Z,7.90
2019-03-26T20:56:22.452Z,8.00
2019-03-26T20:58:51.009Z,7.90
2019-03-26T21:01:19.379Z,8.10
2019-03-26T21:03:47.793Z,8.00
2019-03-26T21:06:16.196Z,7.90
2019-03-26T21:08:44.640Z,7.80
2019-03-26T21:11:13.032Z,7.90
2019-03-26T21:13:50.782Z,7.90
2019-03-26T21:16:11.602Z,8.00
2019-03-26T21:18:40.000Z,7.90
2019-03-26T21:21:08.385Z,7.90
2019-03-26T21:23:36.781Z,7.90
2019-03-26T21:26:05.152Z,7.90
2019-03-26T21:28:33.551Z,7.80
2019-03-26T21:31:01.936Z,7.80
2019-03-26T21:33:30.351Z,7.80
2019-03-26T21:35:58.731Z,7.90
2019-03-26T21:38:27.131Z,7.90
2019-03-26T21:40:55.509Z,7.80
2019-03-26T21:43:23.915Z,7.90
2019-03-26T21:45:52.277Z,8.00
2019-03-26T21:48:20.667Z,7.90
2019-03-26T21:50:49.038Z,7.90
2019-03-26T21:53:17.451Z,7.90
2019-03-26T21:55:45.826Z,7.90
2019-03-26T21:58:14.236Z,7.80
2019-03-26T22:00:44.371Z,7.70
2019-03-26T22:03:12.654Z,7.70
2019-03-26T22:05:41.023Z,7.70
2019-03-26T22:08:09.385Z,7.70
2019-03-26T22:10:37.754Z,7.80
2019-03-26T22:13:06.160Z,7.80
2019-03-26T22:15:34.539Z,7.80
2019-03-26T22:18:02.934Z,7.70
2019-03-26T22:20:31.308Z,7.70
2019-03-26T22:22:59.909Z,7.70
2019-03-26T22:25:28.326Z,7.80
2019-03-26T22:27:56.638Z,7.80
2019-03-26T22:30:25.022Z,7.80
2019-03-26T22:32:53.409Z,7.80
2019-03-26T22:35:21.799Z,7.80
2019-03-26T22:37:50.167Z,7.80
2019-03-26T22:40:18.556Z,7.90
2019-03-26T22:42:46.948Z,7.90
2019-03-26T22:45:16.115Z,7.80
2019-03-26T22:47:44.501Z,7.80
2019-03-26T22:50:13.050Z,7.70
2019-03-26T22:52:41.429Z,7.70
2019-03-26T22:55:09.916Z,7.70
2019-03-26T22:57:38.448Z,7.70
2019-03-26T23:00:17.279Z,7.70
2019-03-26T23:02:45.656Z,7.70
2019-03-26T23:05:14.484Z,7.70
2019-03-26T23:07:42.861Z,7.70
2019-03-26T23:10:11.337Z,7.70
2019-03-26T23:12:39.720Z,7.60
2019-03-26T23:15:22.031Z,7.70
2019-03-26T23:17:50.404Z,7.70
2019-03-26T23:20:18.876Z,7.70
2019-03-26T23:22:47.238Z,7.80
2019-03-26T23:25:15.640Z,7.70
2019-03-26T23:27:44.017Z,7.70
2019-03-26T23:30:12.406Z,7.70
2019-03-26T23:32:40.774Z,7.70
2019-03-26T23:35:09.168Z,7.70
2019-03-26T23:37:37.546Z,7.70
2019-03-26T23:40:06.132Z,7.70
2019-03-26T23:42:34.500Z,7.70
2019-03-26T23:45:03.281Z,7.60
2019-03-26T23:47:31.651Z,7.60
2019-03-26T23:50:00.051Z,7.60
2019-03-26T23:52:28.426Z,7.60
2019-03-26T23:54:56.822Z,7.60
2019-03-26T23:57:25.205Z,7.60
2019-03-26T23:59:53.608Z,7.60
